createdAt,value
2019-05-02T00:00:09.296Z,77.6974
2019-05-02T00:01:12.304Z,78.0117
2019-05-02T00:02:15.338Z,78.2589
2019-05-02T00:03:18.310Z,78.4756
2019-05-02T00:04:21.359Z,78.9929
2019-05-02T00:05:27.393Z,79.0692
2019-05-02T00:06:32.280Z,79.2432
2019-05-02T00:07:34.372Z,79.5224
2019-05-02T00:08:37.281Z,79.9115
2019-05-02T00:09:47.367Z,80.0092
2019-05-02T00:10:48.332Z,80.1923
2019-05-02T00:11:58.609Z,80.2319
2019-05-02T00:12:59.374Z,80.3922
2019-05-02T00:14:04.279Z,80.8743
2019-05-02T00:15:07.298Z,80.4974
2019-05-02T00:16:14.025Z,80.7584
2019-05-02T00:17:20.435Z,81.0803
2019-05-02T00:18:26.333Z,81.3230
2019-05-02T00:19:29.292Z,81.3123
2019-05-02T00:20:31.291Z,81.4511
2019-05-02T00:21:38.275Z,81.7380
2019-05-02T00:22:42.300Z,81.8952
2019-05-02T00:23:45.315Z,81.9028
2019-05-02T00:24:48.299Z,82.1271
2019-05-02T00:25:52.681Z,81.8753
2019-05-02T00:27:01.368Z,82.2690
2019-05-02T00:28:07.795Z,82.2644
2019-05-02T00:29:13.340Z,82.2385
2019-05-02T00:30:16.312Z,82.4170
2019-05-02T00:31:19.289Z,82.5849
2019-05-02T00:32:23.621Z,82.6551
2019-05-02T00:33:29.139Z,82.9374
2019-05-02T00:34:34.314Z,83.0243
2019-05-02T00:35:40.887Z,83.2944
2019-05-02T00:36:45.286Z,83.1083
2019-05-02T00:37:48.282Z,82.8611
2019-05-02T00:38:51.325Z,83.1022
2019-05-02T00:39:54.289Z,83.3600
2019-05-02T00:41:01.731Z,83.6164
2019-05-02T00:42:12.339Z,83.5706
2019-05-02T00:43:13.294Z,83.5142
2019-05-02T00:44:16.299Z,83.2685
2019-05-02T00:45:23.945Z,83.3402
2019-05-02T00:46:30.355Z,83.2776
2019-05-02T00:47:35.336Z,83.3905
2019-05-02T00:48:38.297Z,83.3814
2019-05-02T00:49:41.343Z,83.4363
2019-05-02T00:50:45.264Z,83.5828
2019-05-02T00:51:52.289Z,83.5142
2019-05-02T00:52:55.304Z,84.0543
2019-05-02T00:53:58.292Z,84.0681
2019-05-02T00:55:01.345Z,84.1016
2019-05-02T00:56:05.137Z,83.9170
2019-05-02T00:57:14.954Z,84.1978
2019-05-02T00:58:19.265Z,84.3305
2019-05-02T00:59:22.284Z,84.8112
2019-05-02T01:00:25.323Z,84.9165
2019-05-02T01:01:29.724Z,85.3498
2019-05-02T01:02:35.843Z,85.0248
2019-05-02T01:03:42.270Z,85.0111
2019-05-02T01:04:45.327Z,85.1392
2019-05-02T01:05:48.307Z,85.3086
2019-05-02T01:06:51.361Z,85.3010
2019-05-02T01:07:56.141Z,85.2140
2019-05-02T01:09:05.860Z,85.2552
2019-05-02T01:10:10.286Z,85.4185
2019-05-02T01:11:13.290Z,85.4093
2019-05-02T01:12:26.117Z,85.4047
2019-05-02T01:13:24.333Z,85.1087
2019-05-02T01:14:31.643Z,85.1621
2019-05-02T01:15:39.028Z,85.1957
2019-05-02T01:16:43.278Z,85.2872
2019-05-02T01:17:46.315Z,85.3956
2019-05-02T01:18:49.330Z,85.1728
2019-05-02T01:19:52.743Z,85.3773
2019-05-02T01:20:58.126Z,85.6992
2019-05-02T01:22:03.277Z,85.8183
2019-05-02T01:23:06.325Z,85.8305
2019-05-02T01:24:09.288Z,85.9968
2019-05-02T01:25:15.730Z,86.3539
2019-05-02T01:26:24.280Z,86.5171
2019-05-02T01:27:28.302Z,86.4729
2019-05-02T01:28:31.329Z,86.1555
2019-05-02T01:29:34.316Z,86.0548
2019-05-02T01:30:42.239Z,86.0929
2019-05-02T01:31:45.290Z,86.0288
2019-05-02T01:32:48.306Z,86.1738
2019-05-02T01:33:51.302Z,86.0868
2019-05-02T01:34:56.214Z,85.8396
2019-05-02T01:36:01.635Z,86.2532
2019-05-02T01:37:07.299Z,86.3767
2019-05-02T01:38:10.301Z,86.7430
2019-05-02T01:39:13.335Z,86.7155
2019-05-02T01:40:17.685Z,86.6834
2019-05-02T01:41:24.063Z,86.9245
2019-05-02T01:42:39.571Z,86.9474
2019-05-02T01:43:38.281Z,87.5441
2019-05-02T01:44:41.334Z,87.5975
2019-05-02T01:45:46.587Z,87.5196
2019-05-02T01:46:49.315Z,87.4937
2019-05-02T01:47:51.282Z,87.7760
2019-05-02T01:48:54.288Z,87.3457
2019-05-02T01:49:59.145Z,87.1824
2019-05-02T01:51:04.345Z,87.3106
2019-05-02T01:52:10.292Z,87.2282
2019-05-02T01:53:13.293Z,87.2602
2019-05-02T01:54:16.274Z,87.4708
2019-05-02T01:55:21.184Z,87.7043
2019-05-02T01:56:28.437Z,87.6539
2019-05-02T01:57:33.283Z,87.5105
2019-05-02T01:58:35.303Z,88.0430
2019-05-02T01:59:38.272Z,88.0430
2019-05-02T02:00:44.753Z,87.9866
2019-05-02T02:01:53.119Z,87.9316
2019-05-02T02:02:57.319Z,87.9515
2019-05-02T02:04:00.279Z,87.9332
2019-05-02T02:05:03.318Z,87.8050
2019-05-02T02:06:08.143Z,87.6310
2019-05-02T02:07:15.075Z,87.9057
2019-05-02T02:08:21.326Z,87.6799
2019-05-02T02:09:24.313Z,87.3198
2019-05-02T02:10:27.314Z,87.4159
2019-05-02T02:11:33.898Z,87.4098
2019-05-02T02:12:41.252Z,87.5853
2019-05-02T02:13:46.284Z,87.3640
2019-05-02T02:14:53.372Z,87.3823
2019-05-02T02:16:00.147Z,87.3701
2019-05-02T02:17:05.306Z,87.5334
2019-05-02T02:18:08.267Z,87.2877
2019-05-02T02:19:11.305Z,87.4388
2019-05-02T02:20:14.130Z,87.5105
2019-05-02T02:21:20.172Z,87.3701
2019-05-02T02:22:26.291Z,87.5013
2019-05-02T02:23:29.286Z,87.4189
2019-05-02T02:24:32.298Z,87.2724
2019-05-02T02:25:36.329Z,87.0359
2019-05-02T02:26:43.556Z,87.2953
2019-05-02T02:27:50.252Z,87.1809
2019-05-02T02:28:53.320Z,87.2648
2019-05-02T02:29:56.286Z,86.9703
2019-05-02T02:31:04.968Z,86.7750
2019-05-02T02:32:07.312Z,86.7018
2019-05-02T02:33:10.306Z,86.6911
2019-05-02T02:34:13.281Z,86.9810
2019-05-02T02:35:16.298Z,86.8482
2019-05-02T02:36:29.948Z,86.9718
2019-05-02T02:37:27.294Z,86.9581
2019-05-02T02:38:33.662Z,87.2496
2019-05-02T02:39:38.271Z,87.3381
2019-05-02T02:40:40.289Z,87.2267
2019-05-02T02:41:45.380Z,87.2587
2019-05-02T02:42:50.330Z,87.3564
2019-05-02T02:43:54.824Z,87.3838
2019-05-02T02:45:01.326Z,87.2038
2019-05-02T02:46:04.301Z,87.1687
2019-05-02T02:47:12.117Z,87.0207
2019-05-02T02:48:15.337Z,87.5578
2019-05-02T02:49:21.248Z,87.7638
2019-05-02T02:50:26.308Z,88.4230
2019-05-02T02:51:29.281Z,87.7409
2019-05-02T02:52:37.941Z,87.2679
2019-05-02T02:53:40.297Z,87.6570
2019-05-02T02:54:44.931Z,87.9866
2019-05-02T02:55:48.273Z,87.9774
2019-05-02T02:56:51.332Z,88.1056
2019-05-02T02:57:58.469Z,88.2155
2019-05-02T02:59:02.334Z,88.1254
2019-05-02T03:00:07.639Z,88.6290
2019-05-02T03:01:27.372Z,88.1468
2019-05-02T03:02:23.297Z,88.2673
2019-05-02T03:03:27.931Z,88.3177
2019-05-02T03:04:33.322Z,88.4733
2019-05-02T03:05:36.322Z,88.6564
2019-05-02T03:06:45.070Z,88.4901
2019-05-02T03:07:47.298Z,88.3803
2019-05-02T03:08:50.302Z,88.5405
2019-05-02T03:09:53.270Z,88.6458
2019-05-02T03:10:56.322Z,88.6503
2019-05-02T03:12:02.042Z,88.5420
2019-05-02T03:13:07.319Z,88.6198
2019-05-02T03:14:10.283Z,88.7480
2019-05-02T03:15:13.292Z,88.5588
2019-05-02T03:16:16.332Z,88.6778
2019-05-02T03:17:25.802Z,88.7434
2019-05-02T03:18:27.365Z,88.7617
2019-05-02T03:19:30.285Z,88.8334
2019-05-02T03:20:40.113Z,88.8212
2019-05-02T03:21:41.287Z,88.9891
2019-05-02T03:22:43.561Z,88.8334
2019-05-02T03:23:46.289Z,88.6885
2019-05-02T03:24:49.336Z,88.8075
2019-05-02T03:25:52.326Z,89.2317
2019-05-02T03:26:57.851Z,89.1875
2019-05-02T03:28:01.307Z,88.6656
2019-05-02T03:29:04.280Z,88.7510
2019-05-02T03:30:07.332Z,89.0166
2019-05-02T03:31:24.246Z,88.9021
2019-05-02T03:32:32.172Z,89.0898
2019-05-02T03:33:26.285Z,89.0349
2019-05-02T03:34:44.957Z,89.1920
2019-05-02T03:35:43.923Z,89.1859
2019-05-02T03:36:45.335Z,88.7510
2019-05-02T03:37:51.485Z,88.9357
2019-05-02T03:38:56.305Z,88.8579
2019-05-02T03:40:00.595Z,89.0318
2019-05-02T03:41:04.293Z,88.9525
2019-05-02T03:42:07.345Z,88.5313
2019-05-02T03:43:10.297Z,88.9067
2019-05-02T03:44:24.596Z,88.5420
2019-05-02T03:45:21.279Z,88.8533
2019-05-02T03:46:24.320Z,88.6137
2019-05-02T03:47:27.325Z,88.4642
2019-05-02T03:48:30.295Z,88.6412
2019-05-02T03:49:33.277Z,88.6473
2019-05-02T03:50:36.291Z,88.8533
2019-05-02T03:51:39.329Z,88.3116
2019-05-02T03:52:44.495Z,87.8645
2019-05-02T03:53:49.332Z,87.6616
2019-05-02T03:54:52.704Z,87.4601
2019-05-02T03:55:56.287Z,87.6265
2019-05-02T03:56:59.269Z,87.5990
2019-05-02T03:58:13.335Z,87.4159
2019-05-02T03:59:10.279Z,87.7852
2019-05-02T04:00:20.756Z,87.7089
2019-05-02T04:01:21.279Z,87.7989
2019-05-02T04:02:24.332Z,87.5471
2019-05-02T04:03:27.324Z,87.9286
2019-05-02T04:04:30.299Z,87.9377
2019-05-02T04:05:33.855Z,87.5669
2019-05-02T04:06:41.288Z,87.9774
2019-05-02T04:07:44.311Z,88.3223
2019-05-02T04:08:47.285Z,88.3864
2019-05-02T04:09:50.336Z,88.6870
2019-05-02T04:10:59.440Z,88.8334
2019-05-02T04:12:01.305Z,88.9586
2019-05-02T04:13:04.267Z,89.1005
2019-05-02T04:14:14.642Z,89.2149
2019-05-02T04:15:15.377Z,89.2149
2019-05-02T04:16:18.287Z,89.3935
2019-05-02T04:17:21.313Z,89.3507
2019-05-02T04:18:24.289Z,89.0181
2019-05-02T04:19:28.535Z,89.6391
2019-05-02T04:20:35.290Z,89.9016
2019-05-02T04:21:38.320Z,89.9748
2019-05-02T04:22:42.935Z,89.8634
2019-05-02T04:23:49.324Z,89.6666
2019-05-02T04:24:56.705Z,88.6931
2019-05-02T04:26:00.349Z,88.5237
2019-05-02T04:27:03.269Z,87.9545
2019-05-02T04:28:12.121Z,87.8355
2019-05-02T04:29:14.309Z,87.4601
2019-05-02T04:30:17.279Z,87.3610
2019-05-02T04:31:24.720Z,87.2953
2019-05-02T04:32:29.296Z,87.4784
2019-05-02T04:33:34.644Z,87.5166
2019-05-02T04:34:39.278Z,87.4983
2019-05-02T04:35:42.294Z,87.6814
2019-05-02T04:36:46.603Z,87.4510
2019-05-02T04:37:50.290Z,87.6158
2019-05-02T04:38:52.810Z,87.7211
2019-05-02T04:39:59.150Z,87.3960
2019-05-02T04:41:04.288Z,87.2190
2019-05-02T04:42:13.080Z,86.8833
2019-05-02T04:43:18.225Z,86.6224
2019-05-02T04:44:21.291Z,86.0746
2019-05-02T04:45:29.335Z,86.2837
2019-05-02T04:46:32.274Z,86.0197
2019-05-02T04:47:35.348Z,86.1433
2019-05-02T04:48:43.730Z,86.2150
2019-05-02T04:49:49.096Z,86.5171
2019-05-02T04:50:59.431Z,86.3706
2019-05-02T04:52:10.646Z,86.3172
2019-05-02T04:53:10.301Z,86.0929
2019-05-02T04:54:22.067Z,86.1479
2019-05-02T04:55:28.200Z,86.0182
2019-05-02T04:56:29.324Z,85.7893
2019-05-02T04:57:37.083Z,85.4826
2019-05-02T04:58:40.824Z,85.7893
2019-05-02T04:59:44.304Z,85.9648
2019-05-02T05:00:53.592Z,85.8991
2019-05-02T05:01:58.452Z,85.7176
2019-05-02T05:03:08.422Z,85.5665
2019-05-02T05:04:11.342Z,85.7221
2019-05-02T05:05:17.369Z,85.6977
2019-05-02T05:06:22.299Z,85.3559
2019-05-02T05:07:25.288Z,84.8066
2019-05-02T05:08:31.946Z,85.1225
2019-05-02T05:09:35.312Z,85.1682
2019-05-02T05:10:41.595Z,85.5573
2019-05-02T05:11:48.123Z,85.4749
2019-05-02T05:12:51.296Z,85.3635
2019-05-02T05:13:57.678Z,84.5991
2019-05-02T05:15:02.311Z,84.8508
2019-05-02T05:16:08.143Z,84.0543
2019-05-02T05:17:13.280Z,84.2695
2019-05-02T05:18:17.649Z,84.1733
2019-05-02T05:19:23.069Z,83.9582
2019-05-02T05:20:28.332Z,83.8392
2019-05-02T05:21:31.319Z,84.2618
2019-05-02T05:22:38.564Z,84.4907
2019-05-02T05:23:42.301Z,84.0604
2019-05-02T05:24:45.319Z,84.2435
2019-05-02T05:25:50.571Z,84.1062
2019-05-02T05:26:57.831Z,83.9902
2019-05-02T05:28:05.813Z,84.1688
2019-05-02T05:29:09.299Z,84.2573
2019-05-02T05:30:15.664Z,83.9460
2019-05-02T05:31:23.986Z,83.9323
2019-05-02T05:32:28.345Z,84.0696
2019-05-02T05:33:31.292Z,83.9231
2019-05-02T05:34:34.305Z,83.8026
2019-05-02T05:35:38.558Z,83.6149
2019-05-02T05:36:41.357Z,83.8163
2019-05-02T05:37:51.485Z,83.9185
2019-05-02T05:38:52.316Z,84.2100
2019-05-02T05:39:55.298Z,84.3885
2019-05-02T05:41:02.880Z,84.1917
2019-05-02T05:42:08.405Z,84.0040
2019-05-02T05:43:15.862Z,84.3290
2019-05-02T05:44:23.313Z,84.3427
2019-05-02T05:45:29.307Z,84.4984
2019-05-02T05:46:33.447Z,84.6006
2019-05-02T05:47:40.325Z,84.1108
2019-05-02T05:48:43.309Z,83.6469
2019-05-02T05:49:47.733Z,83.3310
2019-05-02T05:50:51.299Z,82.6947
2019-05-02T05:51:59.524Z,82.2385
2019-05-02T05:53:02.346Z,80.8682
2019-05-02T05:54:05.328Z,79.9298
2019-05-02T05:55:12.617Z,79.2935
2019-05-02T05:56:18.050Z,77.9522
2019-05-02T05:57:21.344Z,77.7737
2019-05-02T05:58:24.366Z,77.3343
2019-05-02T05:59:30.894Z,76.6384
2019-05-02T06:00:35.291Z,76.8582
2019-05-02T06:01:38.542Z,77.4762
2019-05-02T06:02:53.023Z,77.7020
2019-05-02T06:03:49.286Z,77.5601
2019-05-02T06:04:55.359Z,77.0886
2019-05-02T06:06:00.287Z,76.7391
2019-05-02T06:07:03.400Z,76.4889
2019-05-02T06:08:08.057Z,76.5057
2019-05-02T06:09:13.772Z,76.0250
2019-05-02T06:10:17.310Z,75.8099
2019-05-02T06:11:21.791Z,74.6685
2019-05-02T06:12:26.186Z,73.5943
2019-05-02T06:13:32.328Z,74.2794
2019-05-02T06:14:35.335Z,73.3654
2019-05-02T06:15:39.095Z,73.6721
2019-05-02T06:16:46.617Z,74.1283
2019-05-02T06:17:51.293Z,74.0337
2019-05-02T06:18:54.355Z,73.5760
2019-05-02T06:19:57.313Z,72.8374
2019-05-02T06:21:03.433Z,73.1731
2019-05-02T06:22:08.310Z,72.9168
2019-05-02T06:23:11.288Z,71.8120
2019-05-02T06:24:15.681Z,71.5969
2019-05-02T06:25:32.884Z,71.6808
2019-05-02T06:26:27.314Z,70.7637
2019-05-02T06:27:30.475Z,70.8064
2019-05-02T06:28:36.255Z,70.9300
2019-05-02T06:29:42.299Z,70.2434
2019-05-02T06:30:45.309Z,69.5003
2019-05-02T06:31:48.311Z,69.7566
2019-05-02T06:32:54.949Z,71.1345
2019-05-02T06:34:02.124Z,72.4895
2019-05-02T06:35:07.296Z,74.2214
2019-05-02T06:36:10.333Z,75.4162
2019-05-02T06:37:15.306Z,75.2102
2019-05-02T06:38:21.541Z,76.0220
2019-05-02T06:39:27.113Z,75.7931
2019-05-02T06:40:34.337Z,75.0271
2019-05-02T06:41:37.282Z,74.4579
2019-05-02T06:42:40.326Z,73.7682
2019-05-02T06:43:46.635Z,72.4437
2019-05-02T06:44:54.901Z,71.9326
2019-05-02T06:45:59.352Z,71.6747
2019-05-02T06:47:04.415Z,72.0317
2019-05-02T06:48:08.305Z,72.0745
2019-05-02T06:49:11.268Z,72.5719
2019-05-02T06:50:14.318Z,72.2805
2019-05-02T06:51:20.810Z,71.5190
2019-05-02T06:52:27.288Z,71.4656
2019-05-02T06:53:34.972Z,70.9468
2019-05-02T06:54:38.300Z,71.0063
2019-05-02T06:55:41.298Z,69.8207
2019-05-02T06:56:47.848Z,69.2668
2019-05-02T06:57:57.014Z,69.4331
2019-05-02T06:59:00.308Z,68.9616
2019-05-02T07:00:03.313Z,69.0700
2019-05-02T07:01:06.345Z,69.2027
2019-05-02T07:02:09.347Z,69.2073
2019-05-02T07:03:12.262Z,69.5827
2019-05-02T07:04:17.541Z,69.3095
2019-05-02T07:05:27.221Z,68.7327
2019-05-02T07:06:34.818Z,68.2933
2019-05-02T07:07:38.399Z,68.2841
2019-05-02T07:08:41.333Z,68.6778
2019-05-02T07:09:44.317Z,67.4449
2019-05-02T07:10:47.315Z,67.1763
2019-05-02T07:11:56.932Z,67.9316
2019-05-02T07:13:10.117Z,67.7562
2019-05-02T07:14:12.876Z,68.6137
2019-05-02T07:15:14.339Z,68.8090
2019-05-02T07:16:37.288Z,69.5247
2019-05-02T07:17:26.575Z,69.2760
2019-05-02T07:18:33.351Z,68.7602
2019-05-02T07:19:36.304Z,69.0883
2019-05-02T07:20:40.644Z,68.3650
2019-05-02T07:21:45.308Z,68.6275
2019-05-02T07:22:48.288Z,68.4718
2019-05-02T07:23:53.785Z,67.8843
2019-05-02T07:25:01.870Z,67.1763
2019-05-02T07:26:06.306Z,67.4647
2019-05-02T07:27:09.330Z,67.3503
2019-05-02T07:28:11.297Z,67.4907
2019-05-02T07:29:17.016Z,66.7353
2019-05-02T07:30:22.302Z,66.1189
2019-05-02T07:31:25.311Z,66.2638
2019-05-02T07:32:28.309Z,66.0548
2019-05-02T07:33:32.416Z,65.8579
2019-05-02T07:34:39.372Z,64.9973
2019-05-02T07:35:42.331Z,65.3361
2019-05-02T07:36:45.316Z,64.9424
2019-05-02T07:37:48.824Z,64.9226
2019-05-02T07:38:57.528Z,65.1743
2019-05-02T07:40:01.320Z,65.0324
2019-05-02T07:41:04.325Z,64.7303
2019-05-02T07:42:07.883Z,64.9195
2019-05-02T07:43:13.536Z,64.5121
2019-05-02T07:44:19.292Z,64.5060
2019-05-02T07:45:22.318Z,64.6906
2019-05-02T07:46:25.387Z,64.6433
2019-05-02T07:47:28.938Z,64.7303
2019-05-02T07:48:33.394Z,63.6454
2019-05-02T07:49:36.275Z,63.4119
2019-05-02T07:50:41.168Z,64.1993
2019-05-02T07:51:47.309Z,63.0640
2019-05-02T07:52:50.351Z,63.5630
2019-05-02T07:53:55.513Z,63.3707
2019-05-02T07:55:01.115Z,63.1968
2019-05-02T07:56:05.329Z,62.9786
2019-05-02T07:57:08.311Z,62.0752
2019-05-02T07:58:11.322Z,61.7639
2019-05-02T07:59:13.288Z,62.1775
2019-05-02T08:00:16.310Z,61.6327
2019-05-02T08:01:19.295Z,61.3031
2019-05-02T08:02:25.046Z,61.5534
2019-05-02T08:03:33.294Z,61.4847
2019-05-02T08:04:37.322Z,59.6918
2019-05-02T08:05:40.320Z,59.5071
2019-05-02T08:06:44.624Z,59.6918
2019-05-02T08:07:53.362Z,59.5529
2019-05-02T08:09:01.608Z,59.9008
2019-05-02T08:10:05.314Z,59.8047
2019-05-02T08:11:08.308Z,59.6582
2019-05-02T08:12:11.315Z,59.7589
2019-05-02T08:13:17.585Z,59.0417
2019-05-02T08:14:22.329Z,59.6368
2019-05-02T08:15:25.293Z,58.9548
2019-05-02T08:16:28.602Z,58.8815
2019-05-02T08:17:32.374Z,58.7793
2019-05-02T08:18:35.330Z,58.3459
2019-05-02T08:19:41.669Z,58.0392
2019-05-02T08:20:46.303Z,58.3139
2019-05-02T08:21:49.311Z,58.2483
2019-05-02T08:22:52.296Z,59.0631
2019-05-02T08:23:57.227Z,59.3805
2019-05-02T08:25:03.284Z,57.3465
2019-05-02T08:26:06.352Z,56.8261
2019-05-02T08:27:09.304Z,56.2997
2019-05-02T08:28:15.814Z,56.0021
2019-05-02T08:29:23.441Z,56.5087
2019-05-02T08:30:28.311Z,55.9411
2019-05-02T08:31:31.320Z,55.1720
2019-05-02T08:32:34.312Z,55.4025
2019-05-02T08:33:38.382Z,55.0072
2019-05-02T08:34:41.316Z,53.4920
2019-05-02T08:35:44.337Z,52.2988
2019-05-02T08:36:47.290Z,54.7524
2019-05-02T08:37:50.309Z,54.1650
2019-05-02T08:38:54.056Z,53.1594
2019-05-02T08:39:58.363Z,53.7499
2019-05-02T08:41:01.311Z,53.1716
2019-05-02T08:42:04.305Z,51.2871
2019-05-02T08:43:09.290Z,50.1091
2019-05-02T08:44:16.694Z,49.8344
2019-05-02T08:45:20.329Z,49.9779
2019-05-02T08:46:23.322Z,48.4520
2019-05-02T08:47:28.685Z,47.3442
2019-05-02T08:48:36.556Z,48.1865
2019-05-02T08:49:42.589Z,46.6957
2019-05-02T08:50:44.387Z,47.6188
2019-05-02T08:51:47.335Z,46.0624
2019-05-02T08:52:50.275Z,46.8833
2019-05-02T08:53:56.726Z,46.5888
2019-05-02T08:55:04.395Z,48.1193
2019-05-02T08:56:09.349Z,47.8981
2019-05-02T08:57:12.385Z,47.8264
2019-05-02T08:58:15.975Z,47.3579
2019-05-02T08:59:19.724Z,47.3915
2019-05-02T09:00:23.292Z,48.3207
2019-05-02T09:01:34.823Z,47.1901
2019-05-02T09:02:41.148Z,47.7745
2019-05-02T09:03:54.629Z,47.0787
2019-05-02T09:04:58.343Z,47.6967
2019-05-02T09:06:05.685Z,46.9642
2019-05-02T09:07:06.387Z,49.6193
2019-05-02T09:08:14.171Z,49.1081
2019-05-02T09:09:17.309Z,49.2851
2019-05-02T09:10:20.308Z,49.2256
2019-05-02T09:11:23.339Z,48.6992
2019-05-02T09:12:26.346Z,47.6555
2019-05-02T09:13:29.674Z,46.8452
2019-05-02T09:14:33.305Z,47.1351
2019-05-02T09:15:40.383Z,47.2618
2019-05-02T09:16:44.286Z,47.4907
2019-05-02T09:17:54.422Z,48.6549
2019-05-02T09:18:55.394Z,49.7444
2019-05-02T09:20:02.278Z,47.2267
2019-05-02T09:21:06.322Z,46.3569
2019-05-02T09:22:13.313Z,47.0527
2019-05-02T09:23:17.302Z,46.2730
2019-05-02T09:24:23.275Z,46.8589
2019-05-02T09:25:27.328Z,46.4759
2019-05-02T09:26:36.021Z,48.4337
2019-05-02T09:27:38.334Z,49.1936
2019-05-02T09:28:42.230Z,47.8111
2019-05-02T09:29:45.994Z,46.8147
2019-05-02T09:30:49.296Z,47.7073
2019-05-02T09:31:52.661Z,47.3045
2019-05-02T09:32:57.098Z,47.1168
2019-05-02T09:34:04.326Z,46.7597
2019-05-02T09:35:09.357Z,46.5705
2019-05-02T09:36:12.358Z,47.1260
2019-05-02T09:37:15.329Z,47.1626
2019-05-02T09:38:17.305Z,48.9464
2019-05-02T09:39:22.501Z,46.7048
2019-05-02T09:40:25.355Z,45.0431
2019-05-02T09:41:34.423Z,46.1860
2019-05-02T09:42:36.299Z,48.0491
2019-05-02T09:43:39.375Z,48.5481
2019-05-02T09:44:42.613Z,49.0562
2019-05-02T09:45:45.309Z,48.4718
2019-05-02T09:46:53.014Z,48.5847
2019-05-02T09:48:03.986Z,48.2795
2019-05-02T09:49:10.656Z,46.6865
2019-05-02T09:50:12.846Z,48.2933
2019-05-02T09:51:17.383Z,48.6809
2019-05-02T09:52:22.136Z,47.1107
2019-05-02T09:53:25.632Z,48.7724
2019-05-02T09:54:29.290Z,47.9454
2019-05-02T09:55:32.287Z,47.2038
2019-05-02T09:56:35.301Z,46.4607
2019-05-02T09:57:38.322Z,46.0456
2019-05-02T09:58:42.000Z,48.7968
2019-05-02T09:59:50.624Z,47.9118
2019-05-02T10:00:53.342Z,46.2974
2019-05-02T10:01:56.304Z,46.0182
2019-05-02T10:02:59.348Z,47.0390
2019-05-02T10:04:02.447Z,48.9143
2019-05-02T10:05:05.346Z,48.6030
2019-05-02T10:06:12.653Z,49.1432
2019-05-02T10:07:16.384Z,50.3197
2019-05-02T10:08:19.334Z,49.4881
2019-05-02T10:09:25.719Z,49.3050
2019-05-02T10:10:32.220Z,49.6742
2019-05-02T10:11:35.335Z,49.3965
2019-05-02T10:12:38.363Z,49.6803
2019-05-02T10:13:42.422Z,49.0440
2019-05-02T10:14:46.340Z,49.0333
2019-05-02T10:15:49.324Z,48.3879
2019-05-02T10:16:52.935Z,48.5267
2019-05-02T10:18:07.937Z,48.7694
2019-05-02T10:19:09.434Z,47.0054
2019-05-02T10:20:13.320Z,48.0827
2019-05-02T10:21:17.218Z,49.3126
2019-05-02T10:22:20.345Z,47.5959
2019-05-02T10:23:23.582Z,46.4927
2019-05-02T10:24:27.307Z,47.5654
2019-05-02T10:25:38.326Z,45.3162
2019-05-02T10:26:38.311Z,45.2354
2019-05-02T10:27:46.068Z,45.6336
2019-05-02T10:28:50.751Z,45.7969
2019-05-02T10:29:57.253Z,45.6550
2019-05-02T10:31:02.077Z,46.2882
2019-05-02T10:32:07.657Z,44.9149
2019-05-02T10:33:12.379Z,44.9866
2019-05-02T10:34:17.663Z,45.3254
2019-05-02T10:35:22.903Z,44.7715
2019-05-02T10:36:26.309Z,44.6479
2019-05-02T10:37:30.619Z,44.6174
2019-05-02T10:38:37.296Z,43.2334
2019-05-02T10:39:42.230Z,43.7339
2019-05-02T10:40:48.429Z,42.7756
2019-05-02T10:41:53.315Z,42.3819
2019-05-02T10:42:56.331Z,43.5782
2019-05-02T10:43:59.668Z,43.6698
2019-05-02T10:45:07.483Z,44.0040
2019-05-02T10:46:12.597Z,44.4739
2019-05-02T10:47:15.298Z,44.0543
2019-05-02T10:48:27.459Z,43.4043
2019-05-02T10:49:26.309Z,43.6728
2019-05-02T10:50:28.369Z,44.8829
2019-05-02T10:51:31.691Z,44.2695
2019-05-02T10:52:35.318Z,44.8539
2019-05-02T10:53:38.273Z,45.1209
2019-05-02T10:54:42.178Z,45.2033
2019-05-02T10:55:45.321Z,43.9261
2019-05-02T10:56:48.323Z,44.8783
2019-05-02T10:57:52.698Z,44.8692
2019-05-02T10:58:56.329Z,46.2333
2019-05-02T10:59:59.318Z,44.3564
2019-05-02T11:01:02.365Z,44.5808
2019-05-02T11:02:05.301Z,44.1993
2019-05-02T11:03:08.310Z,44.0314
2019-05-02T11:04:12.865Z,43.4134
2019-05-02T11:05:16.970Z,43.4134
2019-05-02T11:06:24.356Z,43.7751
2019-05-02T11:07:27.312Z,43.1388
2019-05-02T11:08:31.941Z,42.5116
2019-05-02T11:09:35.282Z,43.5492
2019-05-02T11:10:38.330Z,43.2792
2019-05-02T11:11:42.374Z,43.0686
2019-05-02T11:12:47.015Z,43.5630
2019-05-02T11:13:53.422Z,44.6632
2019-05-02T11:14:58.320Z,43.1250
2019-05-02T11:16:01.684Z,44.2817
2019-05-02T11:17:09.087Z,45.1926
2019-05-02T11:18:13.341Z,44.7166
2019-05-02T11:19:16.281Z,44.4434
2019-05-02T11:20:19.302Z,44.4282
2019-05-02T11:21:22.937Z,43.8987
2019-05-02T11:22:26.329Z,42.7985
2019-05-02T11:23:29.371Z,43.0014
2019-05-02T11:24:32.327Z,42.8962
2019-05-02T11:25:35.295Z,42.5284
2019-05-02T11:26:38.315Z,41.7014
2019-05-02T11:27:41.894Z,43.4226
2019-05-02T11:28:44.317Z,44.4343
2019-05-02T11:29:47.323Z,44.9866
2019-05-02T11:30:52.307Z,44.3427
2019-05-02T11:31:55.294Z,43.9399
2019-05-02T11:32:58.352Z,43.9857
2019-05-02T11:34:01.932Z,43.6332
2019-05-02T11:35:05.283Z,42.8183
2019-05-02T11:36:08.321Z,43.2029
2019-05-02T11:37:12.054Z,43.4852
2019-05-02T11:38:15.840Z,43.6515
2019-05-02T11:39:27.180Z,44.5945
2019-05-02T11:40:27.312Z,44.5579
2019-05-02T11:41:31.797Z,43.0686
2019-05-02T11:42:35.291Z,43.1479
2019-05-02T11:43:41.414Z,43.4669
2019-05-02T11:44:45.337Z,43.5218
2019-05-02T11:45:48.322Z,44.6632
2019-05-02T11:46:52.089Z,45.0614
2019-05-02T11:47:56.102Z,43.0365
2019-05-02T11:49:03.355Z,43.0777
2019-05-02T11:50:06.337Z,42.4277
2019-05-02T11:51:14.884Z,43.0549
2019-05-02T11:52:17.316Z,42.6261
2019-05-02T11:53:27.000Z,42.4964
2019-05-02T11:54:29.352Z,42.5528
2019-05-02T11:55:32.330Z,41.5808
2019-05-02T11:56:35.315Z,41.4496
2019-05-02T11:57:37.315Z,42.3652
2019-05-02T11:58:47.863Z,43.2303
2019-05-02T11:59:48.367Z,43.6042
2019-05-02T12:00:52.288Z,43.3570
2019-05-02T12:01:59.437Z,44.0131
2019-05-02T12:03:03.308Z,43.9841
2019-05-02T12:04:11.711Z,44.3778
2019-05-02T12:05:14.320Z,44.9180
2019-05-02T12:06:19.617Z,44.6540
2019-05-02T12:07:23.324Z,44.5609
2019-05-02T12:08:26.318Z,44.9500
2019-05-02T12:09:29.298Z,45.4185
2019-05-02T12:10:36.524Z,45.5268
2019-05-02T12:11:41.820Z,45.4902
2019-05-02T12:12:45.319Z,45.7237
2019-05-02T12:13:52.909Z,45.5512
2019-05-02T12:14:58.318Z,46.3325
2019-05-02T12:16:02.693Z,46.8589
2019-05-02T12:17:05.393Z,46.9230
2019-05-02T12:18:08.291Z,47.0069
2019-05-02T12:19:14.351Z,47.1626
2019-05-02T12:20:18.335Z,48.6900
2019-05-02T12:21:22.895Z,50.3883
2019-05-02T12:22:26.307Z,51.8257
2019-05-02T12:23:29.313Z,54.7936
2019-05-02T12:24:31.873Z,56.2722
2019-05-02T12:25:35.325Z,57.4746
2019-05-02T12:26:38.331Z,56.4050
2019-05-02T12:27:42.463Z,57.1878
2019-05-02T12:28:45.288Z,58.7442
2019-05-02T12:29:57.857Z,59.5895
2019-05-02T12:30:58.297Z,59.0829
2019-05-02T12:32:02.598Z,60.5234
2019-05-02T12:33:06.312Z,59.6399
2019-05-02T12:34:09.277Z,60.4105
2019-05-02T12:35:12.318Z,60.2640
2019-05-02T12:36:15.280Z,60.9583
2019-05-02T12:37:18.379Z,61.1322
2019-05-02T12:38:23.081Z,60.9079
2019-05-02T12:39:26.322Z,61.4206
2019-05-02T12:40:29.325Z,61.5595
2019-05-02T12:41:33.082Z,61.4435
2019-05-02T12:42:36.342Z,61.4130
2019-05-02T12:43:39.318Z,61.4023
2019-05-02T12:44:42.700Z,61.4725
2019-05-02T12:45:45.326Z,62.3499
2019-05-02T12:46:48.323Z,63.4684
2019-05-02T12:47:52.304Z,64.4617
2019-05-02T12:48:55.294Z,66.4424
2019-05-02T12:49:58.344Z,66.7216
2019-05-02T12:51:01.997Z,66.1051
2019-05-02T12:52:05.339Z,65.2857
2019-05-02T12:53:08.317Z,66.4515
2019-05-02T12:54:12.370Z,67.0253
2019-05-02T12:55:15.277Z,66.8193
2019-05-02T12:56:18.304Z,67.1885
2019-05-02T12:57:21.978Z,67.6509
2019-05-02T12:58:25.341Z,66.7536
2019-05-02T12:59:28.300Z,67.8676
2019-05-02T13:00:31.988Z,67.6463